Time;durP1;ratioP1;P1;durP2;ratioP2;P2;SDS_P1;SDS_P2;PMS_P1;PMS_P2;Temp;Humidity;BMP_temperature;BMP_pressure;BME280_temperature;BME280_humidity;BME280_pressure;Samples;Min_cycle;Max_cycle;Signal;HPM_P1;HPM_P2
2021/06/10 00:00:52;;;;;;;;;;;;;;;25.30;58.38;100931.88;5031472;28;1515;-73
2021/06/10 00:03:17;;;;;;;;;;;;;;;25.31;58.86;100919.69;5038731;28;1424;-77
2021/06/10 00:05:43;;;;;;;;;;;;;;;25.42;57.94;100922.97;5050333;28;1411;-79
2021/06/10 00:08:10;;;;;;;;;;;;;;;25.38;56.79;100922.00;5050679;28;1581;-75
2021/06/10 00:10:36;;;;;;;;;;;;;;;25.39;56.83;100909.81;5049677;28;1936;-74
2021/06/10 00:13:01;;;;;;;;;;;;;;;25.42;56.47;100917.47;5042663;28;1853;-74
2021/06/10 00:15:29;;;;;;;;;;;;;;;25.41;55.96;100913.06;5045316;28;1894;-75
2021/06/10 00:17:55;;;;;;;;;;;;;;;25.38;57.77;100908.22;5048513;28;1576;-75
2021/06/10 00:20:21;;;;;;;;;;;;;;;25.38;57.41;100908.22;5050276;28;1656;-78
2021/06/10 00:22:46;;;;;;;;;;;;;;;25.28;57.79;100915.66;5050554;28;1575;-73
2021/06/10 00:25:12;;;;;;;;;;;;;;;25.31;56.08;100905.91;5049267;28;2508;-74
2021/06/10 00:27:38;;;;;;;;;;;;;;;25.35;56.46;100906.91;5044526;28;1692;-74
2021/06/10 00:30:04;;;;;;;;;;;;;;;25.33;56.74;100906.41;5047196;28;1978;-74
2021/06/10 00:32:30;;;;;;;;;;;;;;;25.39;56.64;100902.34;5036373;28;1830;-75
2021/06/10 00:34:55;;;;;;;;;;;;;;;25.40;56.97;100901.22;5049567;28;966;-75
2021/06/10 00:37:20;;;;;;;;;;;;;;;25.45;56.12;100900.25;5039419;28;949;-74
2021/06/10 00:39:45;;;;;;;;;;;;;;;25.37;56.35;100895.56;5030509;28;1183;-72
2021/06/10 00:42:11;;;;;;;;;;;;;;;25.44;56.53;100882.91;5030472;28;1242;-72
2021/06/10 00:44:36;;;;;;;;;;;;;;;25.38;55.45;100886.16;5030627;28;881;-72
2021/06/10 00:47:02;;;;;;;;;;;;;;;25.29;54.57;100884.22;5029506;28;1180;-73
2021/06/10 00:49:27;;;;;;;;;;;;;;;25.20;55.76;100886.09;5035391;28;1933;-72
2021/06/10 00:51:54;;;;;;;;;;;;;;;25.21;55.25;100889.66;5036802;28;923;-74
2021/06/10 00:54:19;;;;;;;;;;;;;;;25.28;55.21;100890.03;5030403;28;901;-74
2021/06/10 00:56:45;;;;;;;;;;;;;;;25.37;54.95;100881.75;5041501;28;1772;-74
2021/06/10 00:59:11;;;;;;;;;;;;;;;25.30;55.12;100883.06;5030532;28;832;-74
2021/06/10 01:01:36;;;;;;;;;;;;;;;25.34;56.67;100879.66;5030702;28;891;-74
2021/06/10 01:04:01;;;;;;;;;;;;;;;25.33;55.82;100878.03;5039205;28;1795;-74
2021/06/10 01:06:30;;;;;;;;;;;;;;;25.31;54.98;100881.94;5043890;28;1007;-75
2021/06/10 01:09:01;;;;;;;;;;;;;;;25.31;54.64;100881.09;5050148;28;841;-75
2021/06/10 01:11:39;;;;;;;;;;;;;;;25.34;56.24;100883.22;5049926;28;1923;-74
2021/06/10 01:14:10;;;;;;;;;;;;;;;25.28;55.36;100876.25;5050350;28;830;-74
2021/06/10 01:16:37;;;;;;;;;;;;;;;25.23;55.63;100877.22;5050584;28;1116;-77
2021/06/10 01:19:08;;;;;;;;;;;;;;;25.30;54.62;100880.31;5050455;28;886;-76
2021/06/10 01:21:36;;;;;;;;;;;;;;;25.27;55.53;100869.09;5053550;28;1162;-75
2021/06/10 01:24:04;;;;;;;;;;;;;;;25.25;55.61;100869.44;5053926;28;1290;-74
2021/06/10 01:26:34;;;;;;;;;;;;;;;25.17;55.69;100866.63;5053737;28;2831;-74
2021/06/10 01:29:01;;;;;;;;;;;;;;;25.15;55.00;100866.13;5054028;28;885;-74
2021/06/10 01:31:27;;;;;;;;;;;;;;;25.09;55.38;100859.97;5054519;28;1902;-78
2021/06/10 01:33:53;;;;;;;;;;;;;;;25.19;56.38;100864.38;5055419;28;814;-74
2021/06/10 01:36:19;;;;;;;;;;;;;;;25.22;54.39;100864.56;5054068;28;851;-75
2021/06/10 01:38:45;;;;;;;;;;;;;;;25.15;56.89;100853.16;5053905;28;1027;-74
2021/06/10 01:41:11;;;;;;;;;;;;;;;25.15;54.67;100866.94;5053594;28;902;-75
2021/06/10 01:43:37;;;;;;;;;;;;;;;25.05;54.49;100859.00;5053835;28;1285;-74
2021/06/10 01:46:03;;;;;;;;;;;;;;;24.97;54.78;100863.38;5052446;28;1120;-74
2021/06/10 01:48:29;;;;;;;;;;;;;;;24.98;54.65;100861.44;5053730;28;880;-74
2021/06/10 01:50:56;;;;;;;;;;;;;;;25.15;56.19;100858.69;5054656;28;1926;-76
2021/06/10 01:53:22;;;;;;;;;;;;;;;25.25;56.67;100861.19;5053996;28;900;-76
2021/06/10 01:55:48;;;;;;;;;;;;;;;25.24;55.13;100855.97;5053650;28;868;-72
2021/06/10 01:58:14;;;;;;;;;;;;;;;25.11;54.74;100861.28;5053329;28;799;-72
2021/06/10 02:00:40;;;;;;;;;;;;;;;25.15;55.17;100866.13;5051827;28;917;-72
2021/06/10 02:03:06;;;;;;;;;;;;;;;25.22;55.36;100855.50;5053277;28;873;-75
2021/06/10 02:05:31;;;;;;;;;;;;;;;25.20;55.37;100857.72;5053348;28;916;-74
2021/06/10 02:07:58;;;;;;;;;;;;;;;25.06;54.63;100857.88;5053501;28;1144;-74
2021/06/10 02:10:24;;;;;;;;;;;;;;;24.99;54.64;100863.88;5053001;28;1890;-75
2021/06/10 02:12:50;;;;;;;;;;;;;;;24.97;55.15;100852.34;5053220;28;1295;-75
2021/06/10 02:15:16;;;;;;;;;;;;;;;25.15;54.54;100857.88;5046503;28;1973;-75
2021/06/10 02:17:41;;;;;;;;;;;;;;;25.18;55.04;100849.78;5053070;28;1113;-75
2021/06/10 02:20:08;;;;;;;;;;;;;;;25.17;55.32;100856.41;5053152;28;889;-74
2021/06/10 02:22:34;;;;;;;;;;;;;;;25.35;55.13;100846.22;5053145;28;885;-73
2021/06/10 02:24:59;;;;;;;;;;;;;;;25.23;53.71;100843.31;5047495;28;2752;-74
2021/06/10 02:27:25;;;;;;;;;;;;;;;25.19;55.29;100851.38;5032974;28;875;-74
2021/06/10 02:29:50;;;;;;;;;;;;;;;25.16;53.81;100854.00;5036270;28;1910;-74
2021/06/10 02:32:15;;;;;;;;;;;;;;;25.12;53.99;100859.34;5036010;28;2075;-81
2021/06/10 02:34:41;;;;;;;;;;;;;;;25.20;54.58;100857.72;5054740;28;854;-82
2021/06/10 02:37:07;;;;;;;;;;;;;;;25.16;53.80;100860.31;5052915;28;1006;-75
2021/06/10 02:39:38;;;;;;;;;;;;;;;25.08;54.16;100861.91;5037445;28;858;-75
2021/06/10 02:42:04;;;;;;;;;;;;;;;25.02;54.03;100862.41;5033058;28;1285;-75
2021/06/10 02:44:30;;;;;;;;;;;;;;;25.17;54.59;100869.38;5034037;28;1018;-79
2021/06/10 02:46:56;;;;;;;;;;;;;;;25.28;54.38;100863.28;5034542;28;960;-79
2021/06/10 02:49:23;;;;;;;;;;;;;;;25.25;54.37;100869.44;5033831;28;873;-74
2021/06/10 02:51:48;;;;;;;;;;;;;;;25.07;53.98;100868.56;5032493;28;1941;-74
2021/06/10 02:54:17;;;;;;;;;;;;;;;25.15;54.47;100868.91;5034056;28;2009;-80
2021/06/10 02:56:42;;;;;;;;;;;;;;;25.07;54.22;100856.72;5048301;28;887;-74
2021/06/10 02:59:08;;;;;;;;;;;;;;;25.03;53.46;100864.84;5052880;28;858;-76
2021/06/10 03:01:38;;;;;;;;;;;;;;;25.07;54.43;100862.22;5051323;28;1259;-75
2021/06/10 03:04:04;;;;;;;;;;;;;;;25.08;53.50;100863.88;5044653;28;1850;-74
2021/06/10 03:06:30;;;;;;;;;;;;;;;25.09;54.62;100862.72;5043989;28;791;-74
2021/06/10 03:08:56;;;;;;;;;;;;;;;25.12;53.57;100867.59;5032551;28;887;-74
2021/06/10 03:11:21;;;;;;;;;;;;;;;25.18;55.16;100869.06;5032414;28;1878;-74
2021/06/10 03:13:47;;;;;;;;;;;;;;;25.14;53.40;100872.81;5032165;28;910;-74
2021/06/10 03:16:13;;;;;;;;;;;;;;;25.23;54.29;100870.88;5033220;28;1535;-74
2021/06/10 03:18:39;;;;;;;;;;;;;;;25.21;56.13;100870.38;5046941;28;1264;-79
2021/06/10 03:21:04;;;;;;;;;;;;;;;25.24;55.57;100878.03;5041552;28;1439;-79
2021/06/10 03:23:30;;;;;;;;;;;;;;;25.12;53.84;100873.13;5032762;28;1082;-77
2021/06/10 03:25:57;;;;;;;;;;;;;;;25.20;54.39;100885.28;5049373;28;1729;-75
2021/06/10 03:28:22;;;;;;;;;;;;;;;25.04;54.84;100879.44;5037028;28;857;-73
2021/06/10 03:30:47;;;;;;;;;;;;;;;24.97;55.03;100873.56;5033354;28;1977;-74
2021/06/10 03:33:13;;;;;;;;;;;;;;;25.05;54.95;100881.88;5041767;28;1969;-74
2021/06/10 03:35:38;;;;;;;;;;;;;;;24.99;53.95;100877.66;5039226;28;1790;-71
2021/06/10 03:38:04;;;;;;;;;;;;;;;24.79;54.23;100873.53;5034458;28;890;-71
2021/06/10 03:40:31;;;;;;;;;;;;;;;24.67;54.66;100870.56;5031652;28;2156;-71
2021/06/10 03:42:56;;;;;;;;;;;;;;;24.63;54.85;100869.56;5042217;28;1645;-71
2021/06/10 03:45:22;;;;;;;;;;;;;;;24.60;54.27;100875.72;5038900;28;1823;-71
2021/06/10 03:47:47;;;;;;;;;;;;;;;24.68;54.48;100878.50;5041011;28;1905;-71
2021/06/10 03:50:13;;;;;;;;;;;;;;;24.84;55.41;100876.13;5031950;28;1874;-71
2021/06/10 03:52:39;;;;;;;;;;;;;;;25.00;54.46;100870.19;5036717;28;1926;-71
2021/06/10 03:55:05;;;;;;;;;;;;;;;25.06;55.03;100874.41;5037888;28;1481;-71
2021/06/10 03:57:31;;;;;;;;;;;;;;;25.03;54.89;100870.34;5042424;28;2220;-71
2021/06/10 03:59:57;;;;;;;;;;;;;;;25.09;55.51;100868.22;5042227;28;1746;-71
2021/06/10 04:02:22;;;;;;;;;;;;;;;25.08;54.82;100867.44;5048461;28;1547;-71
2021/06/10 04:04:47;;;;;;;;;;;;;;;25.11;55.21;100871.47;5049609;28;1522;-71
2021/06/10 04:07:13;;;;;;;;;;;;;;;25.13;54.41;100869.22;5049698;28;1596;-71
2021/06/10 04:09:38;;;;;;;;;;;;;;;25.16;54.92;100873.28;5049100;28;1921;-71
2021/06/10 04:12:05;;;;;;;;;;;;;;;25.14;56.21;100876.38;5049743;28;1797;-72
2021/06/10 04:14:30;;;;;;;;;;;;;;;25.13;56.35;100877.47;5048761;28;1862;-71
2021/06/10 04:16:55;;;;;;;;;;;;;;;25.16;56.14;100876.84;5049378;28;1517;-71
2021/06/10 04:19:20;;;;;;;;;;;;;;;25.06;55.10;100883.47;5047661;28;1749;-71
2021/06/10 04:21:46;;;;;;;;;;;;;;;25.09;54.90;100882.00;5038656;28;1203;-72
2021/06/10 04:24:11;;;;;;;;;;;;;;;25.07;55.12;100884.28;5029342;28;1292;-72
2021/06/10 04:26:37;;;;;;;;;;;;;;;25.08;57.04;100883.97;5030167;28;841;-72
2021/06/10 04:29:02;;;;;;;;;;;;;;;24.97;54.96;100884.59;5030002;28;872;-72
2021/06/10 04:31:27;;;;;;;;;;;;;;;24.57;54.70;100893.72;5031276;28;1918;-72
2021/06/10 04:33:53;;;;;;;;;;;;;;;24.42;54.03;100892.13;5030035;28;1160;-72
2021/06/10 04:36:18;;;;;;;;;;;;;;;24.30;54.00;100895.47;5030207;28;1637;-72
2021/06/10 04:38:43;;;;;;;;;;;;;;;24.60;54.16;100889.50;5030193;28;846;-72
2021/06/10 04:41:09;;;;;;;;;;;;;;;24.91;55.29;100894.94;5029881;28;862;-71
2021/06/10 04:43:34;;;;;;;;;;;;;;;24.79;54.36;100898.34;5033227;28;3019;-71
2021/06/10 04:46:00;;;;;;;;;;;;;;;24.78;55.37;100893.13;5030157;28;1185;-72
2021/06/10 04:48:25;;;;;;;;;;;;;;;24.79;55.36;100895.56;5029732;28;987;-71
2021/06/10 04:50:51;;;;;;;;;;;;;;;24.91;55.37;100890.25;5030125;28;1882;-72
2021/06/10 04:53:16;;;;;;;;;;;;;;;25.00;56.35;100892.22;5029869;28;789;-72
2021/06/10 04:55:43;;;;;;;;;;;;;;;25.07;55.71;100887.88;5034464;28;1820;-72
2021/06/10 04:58:08;;;;;;;;;;;;;;;25.03;55.51;100884.13;5037481;28;2162;-72
2021/06/10 05:00:33;;;;;;;;;;;;;;;25.17;57.45;100883.16;5036305;28;1886;-71
2021/06/10 05:02:59;;;;;;;;;;;;;;;25.22;55.40;100891.31;5071016;28;1730;-71
2021/06/10 05:05:24;;;;;;;;;;;;;;;25.05;53.86;100883.78;5049771;28;1539;-71
2021/06/10 05:07:50;;;;;;;;;;;;;;;25.22;54.72;100888.56;5035903;28;1242;-71
2021/06/10 05:10:15;;;;;;;;;;;;;;;25.26;56.26;100895.06;5029912;28;1943;-71
2021/06/10 05:12:40;;;;;;;;;;;;;;;25.05;53.82;100890.13;5028528;28;1463;-71
2021/06/10 05:15:06;;;;;;;;;;;;;;;25.05;53.68;100884.63;5029882;28;878;-72
2021/06/10 05:17:31;;;;;;;;;;;;;;;25.16;53.79;100896.16;5028044;28;1221;-71
2021/06/10 05:19:57;;;;;;;;;;;;;;;25.13;55.63;100894.00;5032413;28;1778;-72
2021/06/10 05:22:22;;;;;;;;;;;;;;;24.98;53.11;100894.50;5036815;28;896;-72
2021/06/10 05:24:47;;;;;;;;;;;;;;;25.23;55.65;100892.94;5041149;28;1981;-72
2021/06/10 05:27:13;;;;;;;;;;;;;;;25.31;55.85;100900.41;5043922;28;851;-77
2021/06/10 05:29:38;;;;;;;;;;;;;;;25.22;56.77;100899.59;5049837;28;1902;-72
2021/06/10 05:32:04;;;;;;;;;;;;;;;25.30;55.58;100896.03;5049296;28;853;-70
2021/06/10 05:34:30;;;;;;;;;;;;;;;25.28;57.10;100893.59;5049354;28;894;-70
2021/06/10 05:36:55;;;;;;;;;;;;;;;25.31;57.84;100898.47;5046124;28;2015;-68
2021/06/10 05:39:21;;;;;;;;;;;;;;;25.22;56.77;100896.84;5031486;28;1732;-66
2021/06/10 05:41:47;;;;;;;;;;;;;;;25.15;56.56;100900.03;5028484;28;870;-67
2021/06/10 05:44:12;;;;;;;;;;;;;;;25.21;57.17;100900.69;5036243;28;1812;-70
2021/06/10 05:46:37;;;;;;;;;;;;;;;25.15;55.46;100900.03;5059533;28;1530;-70
2021/06/10 05:49:02;;;;;;;;;;;;;;;25.12;56.74;100892.41;5068357;28;1568;-71
2021/06/10 05:51:28;;;;;;;;;;;;;;;25.15;56.28;100900.03;5048681;28;1894;-70
2021/06/10 05:53:53;;;;;;;;;;;;;;;25.17;55.46;100902.47;5048578;28;1158;-76
2021/06/10 05:56:18;;;;;;;;;;;;;;;25.18;56.34;100902.16;5048983;28;858;-69
2021/06/10 05:58:44;;;;;;;;;;;;;;;25.16;55.29;100901.66;5048683;28;1186;-69
2021/06/10 06:01:09;;;;;;;;;;;;;;;25.09;56.23;100902.13;5048852;28;910;-68
2021/06/10 06:03:34;;;;;;;;;;;;;;;25.18;54.95;100906.84;5042960;28;1565;-70
2021/06/10 06:06:00;;;;;;;;;;;;;;;25.18;55.97;100904.91;5038071;28;1193;-70
2021/06/10 06:08:26;;;;;;;;;;;;;;;25.18;56.08;100904.09;5033018;28;887;-70
2021/06/10 06:10:52;;;;;;;;;;;;;;;25.37;56.51;100909.34;5039945;28;1949;-73
2021/06/10 06:13:23;;;;;;;;;;;;;;;25.44;55.73;100904.97;5051482;28;1204;-69
2021/06/10 06:15:50;;;;;;;;;;;;;;;25.42;55.50;100906.44;5052705;28;1086;-70
2021/06/10 06:18:16;;;;;;;;;;;;;;;25.29;56.07;100902.66;5053321;28;818;-69
2021/06/10 06:20:41;;;;;;;;;;;;;;;25.33;55.66;100905.59;5053079;28;884;-70
2021/06/10 06:23:07;;;;;;;;;;;;;;;25.09;53.99;100906.81;5053179;28;921;-70
2021/06/10 06:25:32;;;;;;;;;;;;;;;24.92;53.54;100908.41;5051702;28;1388;-69
2021/06/10 06:27:57;;;;;;;;;;;;;;;25.06;54.01;100904.72;5052834;28;1215;-70
2021/06/10 06:30:23;;;;;;;;;;;;;;;25.17;54.22;100908.78;5052582;28;2055;-70
2021/06/10 06:32:48;;;;;;;;;;;;;;;25.21;55.23;100908.94;5052931;28;1043;-70
2021/06/10 06:35:14;;;;;;;;;;;;;;;25.03;53.70;100906.19;5052805;28;866;-70
2021/06/10 06:37:39;;;;;;;;;;;;;;;24.97;53.19;100906.63;5052842;28;870;-70
2021/06/10 06:40:05;;;;;;;;;;;;;;;24.95;55.07;100903.38;5052457;28;1561;-70
2021/06/10 06:42:30;;;;;;;;;;;;;;;25.14;54.13;100908.63;5052758;28;852;-70
2021/06/10 06:44:55;;;;;;;;;;;;;;;25.16;54.84;100909.94;5035759;28;3194;-70
2021/06/10 06:47:21;;;;;;;;;;;;;;;25.16;54.10;100909.94;5032676;28;890;-70
2021/06/10 06:49:46;;;;;;;;;;;;;;;25.24;54.49;100916.63;5032725;28;1866;-70
2021/06/10 06:52:11;;;;;;;;;;;;;;;25.25;54.28;100915.47;5032687;28;865;-69
2021/06/10 06:54:37;;;;;;;;;;;;;;;25.24;54.32;100911.13;5033028;28;1742;-70
2021/06/10 06:57:03;;;;;;;;;;;;;;;25.08;54.53;100911.53;5038422;28;872;-70
2021/06/10 06:59:29;;;;;;;;;;;;;;;25.09;54.80;100918.69;5045492;28;1203;-70
2021/06/10 07:01:54;;;;;;;;;;;;;;;25.25;54.62;100921.00;5052560;28;842;-70
2021/06/10 07:04:19;;;;;;;;;;;;;;;25.23;53.55;100917.75;5052273;28;901;-70
2021/06/10 07:06:47;;;;;;;;;;;;;;;25.19;53.55;100920.28;5052337;28;882;-70
2021/06/10 07:09:12;;;;;;;;;;;;;;;25.25;53.91;100915.47;5052268;28;818;-70
2021/06/10 07:11:37;;;;;;;;;;;;;;;25.27;54.00;100927.81;5052077;28;1961;-70
2021/06/10 07:14:03;;;;;;;;;;;;;;;25.33;53.67;100922.94;5051442;28;1220;-70
2021/06/10 07:16:29;;;;;;;;;;;;;;;25.32;53.64;100926.84;5052069;28;1128;-70
2021/06/10 07:18:54;;;;;;;;;;;;;;;25.35;53.94;100919.88;5051231;28;815;-70
2021/06/10 07:21:20;;;;;;;;;;;;;;;25.35;53.65;100922.63;5052084;28;877;-69
2021/06/10 07:23:45;;;;;;;;;;;;;;;25.35;53.71;100917.13;5051824;28;891;-70
2021/06/10 07:26:10;;;;;;;;;;;;;;;25.40;53.51;100919.72;5051841;28;926;-70
2021/06/10 07:28:36;;;;;;;;;;;;;;;25.39;53.54;100920.84;5051278;28;1381;-70
2021/06/10 07:31:01;;;;;;;;;;;;;;;25.41;53.31;100926.84;5052008;28;1921;-70
2021/06/10 07:33:26;;;;;;;;;;;;;;;25.40;53.48;100930.75;5052058;28;1327;-70
2021/06/10 07:35:52;;;;;;;;;;;;;;;25.42;53.14;100931.25;5051821;28;870;-69
2021/06/10 07:38:17;;;;;;;;;;;;;;;25.38;53.25;100931.06;5051387;28;1490;-70
2021/06/10 07:40:42;;;;;;;;;;;;;;;25.42;53.39;100929.28;5051499;28;885;-70
2021/06/10 07:43:08;;;;;;;;;;;;;;;25.44;52.84;100938.06;5050928;28;1320;-70
2021/06/10 07:45:33;;;;;;;;;;;;;;;25.39;52.76;100937.41;5045281;28;3191;-70
2021/06/10 07:47:59;;;;;;;;;;;;;;;25.41;52.88;100946.16;5031431;28;833;-69
2021/06/10 07:50:25;;;;;;;;;;;;;;;25.42;52.83;100936.78;5030885;28;1874;-70
2021/06/10 07:52:50;;;;;;;;;;;;;;;25.44;52.87;100940.00;5031432;28;1164;-70
2021/06/10 07:55:16;;;;;;;;;;;;;;;25.43;53.10;100944.69;5031490;28;864;-70
2021/06/10 07:57:41;;;;;;;;;;;;;;;25.42;52.96;100945.03;5031126;28;980;-70
2021/06/10 08:00:08;;;;;;;;;;;;;;;25.43;53.28;100946.66;5049804;28;1260;-70
2021/06/10 08:02:33;;;;;;;;;;;;;;;25.42;52.86;100951.34;5051130;28;878;-70
2021/06/10 08:04:59;;;;;;;;;;;;;;;25.43;53.22;100944.69;5051359;28;901;-70
2021/06/10 08:07:25;;;;;;;;;;;;;;;25.45;52.74;100947.94;5044640;28;1749;-70
2021/06/10 08:09:50;;;;;;;;;;;;;;;25.47;52.55;100948.47;5042381;28;1882;-70
2021/06/10 08:12:15;;;;;;;;;;;;;;;25.43;52.88;100950.22;5032583;28;885;-70
2021/06/10 08:14:41;;;;;;;;;;;;;;;25.46;52.41;100952.34;5045922;28;1174;-70
2021/06/10 08:17:06;;;;;;;;;;;;;;;25.46;52.62;100952.34;5050810;28;1339;-70
2021/06/10 08:19:32;;;;;;;;;;;;;;;25.48;52.13;100952.03;5050747;28;884;-70
2021/06/10 08:21:57;;;;;;;;;;;;;;;25.55;52.26;100951.53;5051018;28;956;-70
2021/06/10 08:24:24;;;;;;;;;;;;;;;25.46;52.17;100955.09;5050794;28;881;-70
2021/06/10 08:26:49;;;;;;;;;;;;;;;25.48;51.92;100952.03;5050535;28;873;-70
2021/06/10 08:29:15;;;;;;;;;;;;;;;25.45;51.78;100960.94;5050414;28;1217;-70
2021/06/10 08:31:40;;;;;;;;;;;;;;;25.48;51.62;100954.78;5050848;28;1888;-70
2021/06/10 08:34:05;;;;;;;;;;;;;;;25.48;51.38;100954.78;5040664;28;1801;-70
2021/06/10 08:36:31;;;;;;;;;;;;;;;25.45;52.10;100961.72;5041505;28;1719;-70
2021/06/10 08:38:57;;;;;;;;;;;;;;;25.48;51.93;100952.03;5049977;28;1521;-70
2021/06/10 08:41:24;;;;;;;;;;;;;;;25.46;51.39;100955.09;5047331;28;1594;-70
2021/06/10 08:43:50;;;;;;;;;;;;;;;25.45;51.75;100958.16;5048512;28;1674;-70
2021/06/10 08:46:16;;;;;;;;;;;;;;;25.46;52.13;100963.38;5047733;28;1624;-70
2021/06/10 08:48:43;;;;;;;;;;;;;;;25.47;51.29;100956.72;5047765;28;1692;-70
2021/06/10 08:51:09;;;;;;;;;;;;;;;25.46;51.48;100965.31;5047074;28;1933;-70
2021/06/10 08:53:35;;;;;;;;;;;;;;;25.56;50.92;100965.00;5047514;28;1797;-70
2021/06/10 08:56:01;;;;;;;;;;;;;;;25.53;51.17;100965.63;5046284;28;1836;-70
2021/06/10 08:58:28;;;;;;;;;;;;;;;25.52;49.87;100964.03;5046554;28;1768;-70
2021/06/10 09:00:53;;;;;;;;;;;;;;;25.46;50.14;100968.88;5047259;28;1638;-70
2021/06/10 09:03:23;;;;;;;;;;;;;;;25.52;49.54;100970.34;5047922;28;1665;-70
2021/06/10 09:06:07;;;;;;;;;;;;;;;25.59;48.75;100969.88;5045942;28;1965;-70
2021/06/10 09:08:33;;;;;;;;;;;;;;;25.59;48.80;100980.09;5045526;28;1818;-70
2021/06/10 09:11:14;;;;;;;;;;;;;;;25.66;48.25;100983.19;5048427;28;1882;-70
2021/06/10 09:13:41;;;;;;;;;;;;;;;25.58;48.15;100978.47;5048428;28;2059;-70
2021/06/10 09:16:38;;;;;;;;;;;;;;;25.52;48.02;100992.41;5046363;28;1690;-70
2021/06/10 09:19:16;;;;;;;;;;;;;;;25.49;48.01;100979.28;5029263;28;1726;-69
2021/06/10 09:21:42;;;;;;;;;;;;;;;25.49;48.05;100982.03;5044760;28;1261;-69
2021/06/10 09:24:27;;;;;;;;;;;;;;;25.56;48.18;100983.50;5043287;28;1707;-70
2021/06/10 09:26:59;;;;;;;;;;;;;;;25.52;48.94;100983.34;5042983;28;1732;-70
2021/06/10 09:29:36;;;;;;;;;;;;;;;25.41;49.18;100990.28;5038992;28;1764;-70
2021/06/10 09:32:02;;;;;;;;;;;;;;;25.54;48.39;100983.03;5031826;28;2011;-70
2021/06/10 09:34:41;;;;;;;;;;;;;;;25.49;49.11;100979.28;5037278;28;1786;-70
2021/06/10 09:37:07;;;;;;;;;;;;;;;25.49;48.65;100979.28;5038842;28;1755;-70
2021/06/10 09:39:33;;;;;;;;;;;;;;;25.47;47.90;100980.72;5040977;28;1801;-70
2021/06/10 09:42:00;;;;;;;;;;;;;;;25.57;48.17;100976.84;5045907;28;845;-70
2021/06/10 09:44:42;;;;;;;;;;;;;;;25.53;47.48;100973.91;5041224;28;1794;-70
2021/06/10 09:47:09;;;;;;;;;;;;;;;25.53;48.39;100973.91;5044200;28;2904;-70
2021/06/10 09:49:34;;;;;;;;;;;;;;;25.43;48.97;100971.47;5040402;28;1811;-70
2021/06/10 09:52:02;;;;;;;;;;;;;;;25.46;47.02;100981.88;5043656;28;1949;-70
2021/06/10 09:54:47;;;;;;;;;;;;;;;25.38;47.00;100996.44;5041950;28;1107;-70
2021/06/10 09:57:14;;;;;;;;;;;;;;;25.24;46.38;100985.53;5034167;28;1751;-70
2021/06/10 09:59:48;;;;;;;;;;;;;;;25.12;46.75;100981.41;5047181;28;1731;-70
2021/06/10 10:02:14;;;;;;;;;;;;;;;25.17;46.78;100983.19;5040915;28;1776;-70
2021/06/10 10:04:54;;;;;;;;;;;;;;;25.22;47.37;100976.78;5040868;28;1700;-70
2021/06/10 10:07:20;;;;;;;;;;;;;;;25.30;48.05;100973.22;5039251;28;942;-70
2021/06/10 10:09:45;;;;;;;;;;;;;;;25.24;47.95;100963.50;5049859;28;2027;-70
2021/06/10 10:12:10;;;;;;;;;;;;;;;25.24;46.96;100966.25;5042369;28;1048;-70
2021/06/10 10:14:36;;;;;;;;;;;;;;;25.13;47.60;100960.16;5041509;28;2009;-70
2021/06/10 10:17:01;;;;;;;;;;;;;;;25.20;46.76;100965.22;5045179;28;1817;-71
2021/06/10 10:19:26;;;;;;;;;;;;;;;24.96;47.18;100966.44;5048191;28;1577;-71
2021/06/10 10:21:54;;;;;;;;;;;;;;;24.96;47.52;100966.44;5032350;28;2063;-70
2021/06/10 10:24:20;;;;;;;;;;;;;;;25.12;47.53;100964.88;5046788;28;1730;-70
2021/06/10 10:26:45;;;;;;;;;;;;;;;24.96;47.58;100954.63;5047033;28;1779;-71
2021/06/10 10:29:12;;;;;;;;;;;;;;;24.82;47.29;100960.22;5047008;28;1846;-70
2021/06/10 10:31:38;;;;;;;;;;;;;;;24.77;47.06;100971.38;5050318;28;1910;-70
2021/06/10 10:34:03;;;;;;;;;;;;;;;24.73;47.52;100965.72;5033358;28;884;-70
2021/06/10 10:36:30;;;;;;;;;;;;;;;24.88;49.47;100957.00;5032078;28;882;-70
2021/06/10 10:38:56;;;;;;;;;;;;;;;25.06;49.42;100973.63;5061698;28;1527;-70
2021/06/10 10:41:22;;;;;;;;;;;;;;;25.02;47.87;100958.84;5051195;28;1831;-70
2021/06/10 10:43:47;;;;;;;;;;;;;;;24.97;48.61;100965.34;5042886;28;2166;-71
2021/06/10 10:46:20;;;;;;;;;;;;;;;24.85;48.62;100951.31;5039849;28;931;-71
2021/06/10 10:48:49;;;;;;;;;;;;;;;24.76;48.85;100962.31;5050788;28;870;-71
2021/06/10 10:51:25;;;;;;;;;;;;;;;24.83;48.77;100983.88;5050142;28;1946;-71
2021/06/10 10:53:57;;;;;;;;;;;;;;;24.75;48.93;100976.41;5049242;28;795;-71
2021/06/10 10:56:36;;;;;;;;;;;;;;;24.86;48.76;100969.50;5050445;28;822;-71
2021/06/10 10:59:09;;;;;;;;;;;;;;;24.96;48.87;100969.19;5049986;28;1226;-71
2021/06/10 11:01:34;;;;;;;;;;;;;;;25.06;48.74;100959.84;5051222;28;890;-71
2021/06/10 11:03:59;;;;;;;;;;;;;;;25.06;49.41;100965.34;5051461;28;866;-69
2021/06/10 11:06:28;;;;;;;;;;;;;;;25.16;49.33;100967.81;5052042;28;870;-71
2021/06/10 11:08:57;;;;;;;;;;;;;;;25.16;49.99;100942.19;5047926;28;1829;-71
2021/06/10 11:11:22;;;;;;;;;;;;;;;25.16;49.94;100954.03;5038463;28;1955;-69
2021/06/10 11:13:48;;;;;;;;;;;;;;;25.22;50.85;100963.81;5042782;28;1264;-71
2021/06/10 11:16:15;;;;;;;;;;;;;;;25.08;50.85;100958.38;5043280;28;2031;-71
2021/06/10 11:18:44;;;;;;;;;;;;;;;24.97;51.08;100958.97;5041432;28;872;-71
2021/06/10 11:21:11;;;;;;;;;;;;;;;25.05;51.52;100978.31;5031696;28;896;-71
2021/06/10 11:23:36;;;;;;;;;;;;;;;24.96;52.00;100976.66;5031590;28;835;-71
2021/06/10 11:26:04;;;;;;;;;;;;;;;25.05;51.40;100978.31;5030704;28;885;-72
2021/06/10 11:28:34;;;;;;;;;;;;;;;25.08;51.64;100985.94;5036752;28;1231;-72
2021/06/10 11:31:20;;;;;;;;;;;;;;;25.22;50.99;100990.56;5051396;28;1981;-72
2021/06/10 11:33:45;;;;;;;;;;;;;;;25.26;51.73;100991.53;5051495;28;886;-72
2021/06/10 11:36:11;;;;;;;;;;;;;;;25.25;51.52;100996.25;5051352;28;1225;-72
2021/06/10 11:38:40;;;;;;;;;;;;;;;25.16;51.91;100980.78;5043809;28;2048;-72
2021/06/10 11:41:07;;;;;;;;;;;;;;;25.19;52.05;100978.19;5038407;28;1856;-71
2021/06/10 11:43:34;;;;;;;;;;;;;;;25.17;52.33;100974.13;5043241;28;1677;-73
2021/06/10 11:46:00;;;;;;;;;;;;;;;25.17;53.00;100958.41;5038693;28;2972;-70
2021/06/10 11:48:46;;;;;;;;;;;;;;;25.03;52.13;100960.47;5042557;28;2883;-71
2021/06/10 11:51:21;;;;;;;;;;;;;;;24.91;52.64;100963.81;5035484;28;1953;-71
2021/06/10 11:53:46;;;;;;;;;;;;;;;25.00;51.92;100950.09;5042124;28;1828;-71
2021/06/10 11:56:12;;;;;;;;;;;;;;;24.90;52.46;100951.19;5040498;28;958;-71
2021/06/10 11:58:38;;;;;;;;;;;;;;;24.89;52.76;100963.31;5033618;28;1816;-71
2021/06/10 12:01:10;;;;;;;;;;;;;;;24.86;53.03;100967.53;5042429;28;1855;-71
2021/06/10 12:03:36;;;;;;;;;;;;;;;24.92;52.77;100979.25;5036974;28;2105;-71
2021/06/10 12:06:01;;;;;;;;;;;;;;;24.92;52.47;100985.56;5037297;28;1680;-71
2021/06/10 12:08:27;;;;;;;;;;;;;;;24.94;52.62;100990.75;5041001;28;925;-71
2021/06/10 12:10:56;;;;;;;;;;;;;;;24.87;53.21;100998.66;5031384;28;1882;-71
2021/06/10 12:13:27;;;;;;;;;;;;;;;24.89;53.00;100999.16;5038616;28;2044;-71
2021/06/10 12:15:53;;;;;;;;;;;;;;;24.77;53.31;100991.50;5043335;28;1424;-71
2021/06/10 12:18:19;;;;;;;;;;;;;;;24.74;53.25;100994.88;5050292;28;901;-71
2021/06/10 12:20:46;;;;;;;;;;;;;;;24.71;53.58;100992.78;5050481;28;947;-71
2021/06/10 12:23:16;;;;;;;;;;;;;;;24.70;53.54;100980.09;5049081;28;1371;-71
2021/06/10 12:25:47;;;;;;;;;;;;;;;24.80;53.44;100984.53;5043320;28;1796;-71
2021/06/10 12:28:24;;;;;;;;;;;;;;;24.97;53.09;100976.34;5038125;28;1973;-71
2021/06/10 12:30:49;;;;;;;;;;;;;;;24.85;53.50;100971.44;5033865;28;1981;-71
2021/06/10 12:33:16;;;;;;;;;;;;;;;24.82;53.15;100968.50;5048766;28;1434;-71
2021/06/10 12:35:52;;;;;;;;;;;;;;;24.82;53.80;100971.25;5050137;28;996;-71
2021/06/10 12:38:18;;;;;;;;;;;;;;;24.79;53.98;100960.84;5046186;28;1795;-71
2021/06/10 12:40:45;;;;;;;;;;;;;;;24.84;53.89;100967.03;5040972;28;894;-71
2021/06/10 12:43:17;;;;;;;;;;;;;;;24.89;53.75;100966.09;5039591;28;2861;-71
2021/06/10 12:45:43;;;;;;;;;;;;;;;24.94;53.69;100965.97;5045103;28;932;-70
2021/06/10 12:48:28;;;;;;;;;;;;;;;24.99;53.69;100951.22;5036085;28;1829;-71